sensor_id;sensor_type;location;lat;lon;timestamp;temperature;humidity
5419;DHT22;2732;52.092;11.556;2023-02-18T00:00:08;6.50;99.90
5419;DHT22;2732;52.092;11.556;2023-02-18T00:05:13;6.50;99.90
5419;DHT22;2732;52.092;11.556;2023-02-18T00:10:14;6.50;99.90
5419;DHT22;2732;52.092;11.556;2023-02-18T00:15:15;6.40;99.90
5419;DHT22;2732;52.092;11.556;2023-02-18T00:20:16;6.40;99.90
5419;DHT22;2732;52.092;11.556;2023-02-18T00:25:17;6.40;99.90
5419;DHT22;2732;52.092;11.556;2023-02-18T00:30:17;6.30;99.90
5419;DHT22;2732;52.092;11.556;2023-02-18T00:35:18;6.30;99.90
5419;DHT22;2732;52.092;11.556;2023-02-18T00:40:19;6.20;99.90
5419;DHT22;2732;52.092;11.556;2023-02-18T00:45:20;6.20;99.90
5419;DHT22;2732;52.092;11.556;2023-02-18T00:50:21;6.20;99.90
5419;DHT22;2732;52.092;11.556;2023-02-18T00:55:22;6.10;99.90
5419;DHT22;2732;52.092;11.556;2023-02-18T01:00:23;6.10;99.90
5419;DHT22;2732;52.092;11.556;2023-02-18T01:05:25;6.00;99.90
5419;DHT22;2732;52.092;11.556;2023-02-18T01:10:26;6.00;99.90
5419;DHT22;2732;52.092;11.556;2023-02-18T01:15:26;5.90;99.90
5419;DHT22;2732;52.092;11.556;2023-02-18T01:20:27;5.90;99.90
5419;DHT22;2732;52.092;11.556;2023-02-18T01:25:28;5.80;99.90
5419;DHT22;2732;52.092;11.556;2023-02-18T01:30:28;5.80;99.90
5419;DHT22;2732;52.092;11.556;2023-02-18T01:35:29;5.80;99.90
5419;DHT22;2732;52.092;11.556;2023-02-18T01:40:30;5.80;99.90
5419;DHT22;2732;52.092;11.556;2023-02-18T01:51:50;5.70;99.90
5419;DHT22;2732;52.092;11.556;2023-02-18T01:57:03;5.60;99.90
5419;DHT22;2732;52.092;11.556;2023-02-18T02:02:09;5.60;99.90
5419;DHT22;2732;52.092;11.556;2023-02-18T02:07:12;5.50;99.90
5419;DHT22;2732;52.092;11.556;2023-02-18T02:12:42;5.50;99.90
5419;DHT22;2732;52.092;11.556;2023-02-18T02:18:24;5.50;99.90
5419;DHT22;2732;52.092;11.556;2023-02-18T02:29:50;5.50;99.90
5419;DHT22;2732;52.092;11.556;2023-02-18T02:35:18;5.50;99.90
5419;DHT22;2732;52.092;11.556;2023-02-18T02:46:17;5.50;99.90
5419;DHT22;2732;52.092;11.556;2023-02-18T02:51:38;5.40;99.90
5419;DHT22;2732;52.092;11.556;2023-02-18T02:56:42;5.40;99.90
5419;DHT22;2732;52.092;11.556;2023-02-18T03:01:50;5.40;99.90
5419;DHT22;2732;52.092;11.556;2023-02-18T03:07:10;5.40;99.90
5419;DHT22;2732;52.092;11.556;2023-02-18T03:23:16;5.40;99.90
5419;DHT22;2732;52.092;11.556;2023-02-18T03:28:22;5.40;99.90
5419;DHT22;2732;52.092;11.556;2023-02-18T03:33:32;5.40;99.90
5419;DHT22;2732;52.092;11.556;2023-02-18T03:38:43;5.40;99.90
5419;DHT22;2732;52.092;11.556;2023-02-18T03:44:02;5.40;99.90
5419;DHT22;2732;52.092;11.556;2023-02-18T03:49:05;5.40;99.90
5419;DHT22;2732;52.092;11.556;2023-02-18T03:54:05;5.40;99.90
5419;DHT22;2732;52.092;11.556;2023-02-18T03:59:06;5.40;99.90
5419;DHT22;2732;52.092;11.556;2023-02-18T04:04:07;5.40;99.90
5419;DHT22;2732;52.092;11.556;2023-02-18T04:09:08;5.40;99.90
5419;DHT22;2732;52.092;11.556;2023-02-18T04:14:12;5.40;99.90
5419;DHT22;2732;52.092;11.556;2023-02-18T04:19:13;5.40;99.90
5419;DHT22;2732;52.092;11.556;2023-02-18T04:24:13;5.40;99.90
5419;DHT22;2732;52.092;11.556;2023-02-18T04:29:14;5.50;99.90
5419;DHT22;2732;52.092;11.556;2023-02-18T04:34:15;5.50;99.90
5419;DHT22;2732;52.092;11.556;2023-02-18T04:39:15;5.50;99.90
5419;DHT22;2732;52.092;11.556;2023-02-18T04:44:16;5.50;99.90
5419;DHT22;2732;52.092;11.556;2023-02-18T04:49:16;5.60;99.90
5419;DHT22;2732;52.092;11.556;2023-02-18T04:54:17;5.60;99.90
5419;DHT22;2732;52.092;11.556;2023-02-18T04:59:18;5.60;99.90
5419;DHT22;2732;52.092;11.556;2023-02-18T05:04:18;5.60;99.90
5419;DHT22;2732;52.092;11.556;2023-02-18T05:09:19;5.70;99.90
5419;DHT22;2732;52.092;11.556;2023-02-18T05:14:19;5.70;99.90
5419;DHT22;2732;52.092;11.556;2023-02-18T05:19:20;5.70;99.90
5419;DHT22;2732;52.092;11.556;2023-02-18T05:24:21;5.80;99.90
5419;DHT22;2732;52.092;11.556;2023-02-18T05:29:21;5.80;99.90
5419;DHT22;2732;52.092;11.556;2023-02-18T05:34:22;5.90;99.90
5419;DHT22;2732;52.092;11.556;2023-02-18T05:39:22;5.90;99.90
5419;DHT22;2732;52.092;11.556;2023-02-18T05:44:23;5.90;99.90
5419;DHT22;2732;52.092;11.556;2023-02-18T05:49:31;5.90;99.90
5419;DHT22;2732;52.092;11.556;2023-02-18T05:54:33;6.00;99.90
5419;DHT22;2732;52.092;11.556;2023-02-18T05:59:35;6.00;99.90
5419;DHT22;2732;52.092;11.556;2023-02-18T06:04:35;6.00;99.90
5419;DHT22;2732;52.092;11.556;2023-02-18T06:09:36;6.00;99.90
5419;DHT22;2732;52.092;11.556;2023-02-18T06:14:37;6.10;99.90
5419;DHT22;2732;52.092;11.556;2023-02-18T06:19:41;6.10;99.90
5419;DHT22;2732;52.092;11.556;2023-02-18T06:24:41;6.10;99.90
5419;DHT22;2732;52.092;11.556;2023-02-18T06:29:42;6.10;99.90
5419;DHT22;2732;52.092;11.556;2023-02-18T06:34:43;6.10;99.90
5419;DHT22;2732;52.092;11.556;2023-02-18T06:39:43;6.10;99.90
5419;DHT22;2732;52.092;11.556;2023-02-18T06:44:44;6.10;99.90
5419;DHT22;2732;52.092;11.556;2023-02-18T06:49:45;6.10;99.90
5419;DHT22;2732;52.092;11.556;2023-02-18T06:54:45;6.20;99.90
5419;DHT22;2732;52.092;11.556;2023-02-18T06:59:46;6.20;99.90
5419;DHT22;2732;52.092;11.556;2023-02-18T07:04:47;6.20;99.90
5419;DHT22;2732;52.092;11.556;2023-02-18T07:09:47;6.20;99.90
5419;DHT22;2732;52.092;11.556;2023-02-18T07:14:48;6.20;99.90
5419;DHT22;2732;52.092;11.556;2023-02-18T07:19:49;6.30;99.90
5419;DHT22;2732;52.092;11.556;2023-02-18T07:24:51;6.30;99.90
5419;DHT22;2732;52.092;11.556;2023-02-18T07:29:52;6.30;99.90
5419;DHT22;2732;52.092;11.556;2023-02-18T07:34:53;6.30;99.90
5419;DHT22;2732;52.092;11.556;2023-02-18T07:39:53;6.40;99.90
5419;DHT22;2732;52.092;11.556;2023-02-18T07:44:54;6.40;99.90
5419;DHT22;2732;52.092;11.556;2023-02-18T07:49:54;6.40;99.90
5419;DHT22;2732;52.092;11.556;2023-02-18T07:54:55;6.50;99.90
5419;DHT22;2732;52.092;11.556;2023-02-18T07:59:55;6.60;99.90
5419;DHT22;2732;52.092;11.556;2023-02-18T08:04:56;6.60;99.90
5419;DHT22;2732;52.092;11.556;2023-02-18T08:09:56;6.70;99.90
5419;DHT22;2732;52.092;11.556;2023-02-18T08:14:57;6.80;99.90
5419;DHT22;2732;52.092;11.556;2023-02-18T08:19:58;6.80;99.90
5419;DHT22;2732;52.092;11.556;2023-02-18T08:24:58;6.90;99.90
5419;DHT22;2732;52.092;11.556;2023-02-18T08:29:59;6.90;99.90
5419;DHT22;2732;52.092;11.556;2023-02-18T08:34:59;7.00;99.90
5419;DHT22;2732;52.092;11.556;2023-02-18T08:40:01;7.10;99.90
5419;DHT22;2732;52.092;11.556;2023-02-18T08:45:03;7.20;99.90
5419;DHT22;2732;52.092;11.556;2023-02-18T08:50:05;7.30;99.90
5419;DHT22;2732;52.092;11.556;2023-02-18T08:55:06;7.30;99.90
5419;DHT22;2732;52.092;11.556;2023-02-18T09:00:07;7.40;99.90
5419;DHT22;2732;52.092;11.556;2023-02-18T09:05:09;7.40;99.90
5419;DHT22;2732;52.092;11.556;2023-02-18T09:10:10;7.50;99.90
5419;DHT22;2732;52.092;11.556;2023-02-18T09:15:11;7.60;99.90
5419;DHT22;2732;52.092;11.556;2023-02-18T09:20:12;7.70;99.90
5419;DHT22;2732;52.092;11.556;2023-02-18T09:25:13;7.70;99.90
5419;DHT22;2732;52.092;11.556;2023-02-18T09:30:14;7.80;99.90
5419;DHT22;2732;52.092;11.556;2023-02-18T09:35:15;7.90;99.90
5419;DHT22;2732;52.092;11.556;2023-02-18T09:40:29;8.10;99.90
5419;DHT22;2732;52.092;11.556;2023-02-18T09:45:31;8.10;99.90
5419;DHT22;2732;52.092;11.556;2023-02-18T09:50:35;8.20;99.90
5419;DHT22;2732;52.092;11.556;2023-02-18T09:55:38;8.30;99.90
5419;DHT22;2732;52.092;11.556;2023-02-18T10:00:43;8.30;99.90
5419;DHT22;2732;52.092;11.556;2023-02-18T10:06:01;8.40;99.90
5419;DHT22;2732;52.092;11.556;2023-02-18T10:11:14;8.50;99.90
5419;DHT22;2732;52.092;11.556;2023-02-18T10:16:18;8.60;99.90
5419;DHT22;2732;52.092;11.556;2023-02-18T10:21:24;8.80;99.90
5419;DHT22;2732;52.092;11.556;2023-02-18T10:26:26;9.00;99.90
5419;DHT22;2732;52.092;11.556;2023-02-18T10:31:35;9.30;99.90
5419;DHT22;2732;52.092;11.556;2023-02-18T10:36:52;9.60;99.90
5419;DHT22;2732;52.092;11.556;2023-02-18T10:47:38;10.20;99.90
5419;DHT22;2732;52.092;11.556;2023-02-18T10:52:44;10.50;99.90
5419;DHT22;2732;52.092;11.556;2023-02-18T10:57:52;10.70;99.90
5419;DHT22;2732;52.092;11.556;2023-02-18T11:08:44;11.10;99.90
5419;DHT22;2732;52.092;11.556;2023-02-18T11:13:52;11.10;99.90
5419;DHT22;2732;52.092;11.556;2023-02-18T11:18:54;11.20;99.90
5419;DHT22;2732;52.092;11.556;2023-02-18T11:23:56;11.10;99.90
5419;DHT22;2732;52.092;11.556;2023-02-18T11:29:02;11.20;99.90
5419;DHT22;2732;52.092;11.556;2023-02-18T11:34:17;11.50;99.90
5419;DHT22;2732;52.092;11.556;2023-02-18T11:39:28;11.70;99.90
5419;DHT22;2732;52.092;11.556;2023-02-18T11:44:35;11.90;99.90
5419;DHT22;2732;52.092;11.556;2023-02-18T11:49:38;12.00;99.90
5419;DHT22;2732;52.092;11.556;2023-02-18T11:54:40;12.00;99.90
5419;DHT22;2732;52.092;11.556;2023-02-18T11:59:41;12.00;99.90
5419;DHT22;2732;52.092;11.556;2023-02-18T12:04:46;11.90;99.90
5419;DHT22;2732;52.092;11.556;2023-02-18T12:09:59;12.00;99.90
5419;DHT22;2732;52.092;11.556;2023-02-18T12:15:03;11.80;99.90
5419;DHT22;2732;52.092;11.556;2023-02-18T12:20:23;11.90;99.90
5419;DHT22;2732;52.092;11.556;2023-02-18T12:37:05;11.90;99.90
5419;DHT22;2732;52.092;11.556;2023-02-18T12:42:32;12.00;99.90
5419;DHT22;2732;52.092;11.556;2023-02-18T12:53:33;12.20;99.90
5419;DHT22;2732;52.092;11.556;2023-02-18T12:58:58;12.20;99.90
5419;DHT22;2732;52.092;11.556;2023-02-18T13:09:53;12.30;99.90
5419;DHT22;2732;52.092;11.556;2023-02-18T13:20:45;12.20;99.90
5419;DHT22;2732;52.092;11.556;2023-02-18T13:25:55;12.10;99.90
5419;DHT22;2732;52.092;11.556;2023-02-18T13:42:59;12.10;99.90
5419;DHT22;2732;52.092;11.556;2023-02-18T13:47:46;12.00;99.90
5419;DHT22;2732;52.092;11.556;2023-02-18T13:58:02;11.70;99.90
5419;DHT22;2732;52.092;11.556;2023-02-18T14:08:35;11.50;99.90
5419;DHT22;2732;52.092;11.556;2023-02-18T14:13:54;11.40;99.90
5419;DHT22;2732;52.092;11.556;2023-02-18T14:19:27;11.40;99.90
5419;DHT22;2732;52.092;11.556;2023-02-18T14:24:51;11.30;99.90
5419;DHT22;2732;52.092;11.556;2023-02-18T14:30:47;11.40;99.90
5419;DHT22;2732;52.092;11.556;2023-02-18T14:46:39;11.30;99.90
5419;DHT22;2732;52.092;11.556;2023-02-18T14:51:49;11.10;99.90
5419;DHT22;2732;52.092;11.556;2023-02-18T14:57:04;11.10;99.90
5419;DHT22;2732;52.092;11.556;2023-02-18T15:02:34;11.00;99.90
5419;DHT22;2732;52.092;11.556;2023-02-18T15:07:37;10.90;99.90
5419;DHT22;2732;52.092;11.556;2023-02-18T15:12:38;10.90;99.90
5419;DHT22;2732;52.092;11.556;2023-02-18T15:17:43;10.90;99.90
5419;DHT22;2732;52.092;11.556;2023-02-18T15:22:45;10.90;99.90
5419;DHT22;2732;52.092;11.556;2023-02-18T15:27:50;10.90;99.90
5419;DHT22;2732;52.092;11.556;2023-02-18T15:32:53;10.90;99.90
5419;DHT22;2732;52.092;11.556;2023-02-18T15:37:58;10.80;99.90
5419;DHT22;2732;52.092;11.556;2023-02-18T15:43:01;10.70;99.90
5419;DHT22;2732;52.092;11.556;2023-02-18T15:48:04;10.70;99.90
5419;DHT22;2732;52.092;11.556;2023-02-18T15:53:08;10.60;99.90
5419;DHT22;2732;52.092;11.556;2023-02-18T15:58:29;10.50;99.90
5419;DHT22;2732;52.092;11.556;2023-02-18T16:03:45;10.40;99.90
5419;DHT22;2732;52.092;11.556;2023-02-18T16:14:06;10.30;99.90
5419;DHT22;2732;52.092;11.556;2023-02-18T16:19:22;10.20;99.90
5419;DHT22;2732;52.092;11.556;2023-02-18T16:24:28;10.10;99.90
5419;DHT22;2732;52.092;11.556;2023-02-18T16:29:39;10.10;99.90
5419;DHT22;2732;52.092;11.556;2023-02-18T16:34:40;10.00;99.90
5419;DHT22;2732;52.092;11.556;2023-02-18T16:39:41;10.00;99.90
5419;DHT22;2732;52.092;11.556;2023-02-18T16:44:42;10.00;99.90
5419;DHT22;2732;52.092;11.556;2023-02-18T16:49:48;10.00;99.90
5419;DHT22;2732;52.092;11.556;2023-02-18T16:54:49;9.90;99.90
5419;DHT22;2732;52.092;11.556;2023-02-18T16:59:52;9.90;99.90
5419;DHT22;2732;52.092;11.556;2023-02-18T17:04:53;9.90;99.90
5419;DHT22;2732;52.092;11.556;2023-02-18T17:09:56;9.90;99.90
5419;DHT22;2732;52.092;11.556;2023-02-18T17:15:00;9.80;99.90
5419;DHT22;2732;52.092;11.556;2023-02-18T17:20:01;9.80;99.90
5419;DHT22;2732;52.092;11.556;2023-02-18T17:25:02;9.80;99.90
5419;DHT22;2732;52.092;11.556;2023-02-18T17:30:05;9.70;99.90
5419;DHT22;2732;52.092;11.556;2023-02-18T17:35:06;9.70;99.90
5419;DHT22;2732;52.092;11.556;2023-02-18T17:40:12;9.60;99.90
5419;DHT22;2732;52.092;11.556;2023-02-18T17:50:31;9.50;99.90
5419;DHT22;2732;52.092;11.556;2023-02-18T17:55:34;9.50;99.90
5419;DHT22;2732;52.092;11.556;2023-02-18T18:00:39;9.50;99.90
5419;DHT22;2732;52.092;11.556;2023-02-18T18:05:45;9.50;99.90
5419;DHT22;2732;52.092;11.556;2023-02-18T18:10:52;9.50;99.90
5419;DHT22;2732;52.092;11.556;2023-02-18T18:15:54;9.60;99.90
5419;DHT22;2732;52.092;11.556;2023-02-18T18:20:57;9.60;99.90
5419;DHT22;2732;52.092;11.556;2023-02-18T18:25:59;9.60;99.90
5419;DHT22;2732;52.092;11.556;2023-02-18T18:31:00;9.60;99.90
5419;DHT22;2732;52.092;11.556;2023-02-18T18:36:01;9.60;99.90
5419;DHT22;2732;52.092;11.556;2023-02-18T18:41:02;9.60;99.90
5419;DHT22;2732;52.092;11.556;2023-02-18T18:46:02;9.60;99.90
5419;DHT22;2732;52.092;11.556;2023-02-18T18:51:03;9.50;99.90
5419;DHT22;2732;52.092;11.556;2023-02-18T18:56:06;9.50;99.90
5419;DHT22;2732;52.092;11.556;2023-02-18T19:01:14;9.50;99.90
5419;DHT22;2732;52.092;11.556;2023-02-18T19:06:16;9.50;99.90
5419;DHT22;2732;52.092;11.556;2023-02-18T19:11:17;9.50;99.90
5419;DHT22;2732;52.092;11.556;2023-02-18T19:16:29;9.50;99.90
5419;DHT22;2732;52.092;11.556;2023-02-18T19:21:35;9.40;99.90
5419;DHT22;2732;52.092;11.556;2023-02-18T19:26:36;9.40;99.90
5419;DHT22;2732;52.092;11.556;2023-02-18T19:31:36;9.40;99.90
5419;DHT22;2732;52.092;11.556;2023-02-18T19:36:37;9.40;99.90
5419;DHT22;2732;52.092;11.556;2023-02-18T19:41:37;9.30;99.90
5419;DHT22;2732;52.092;11.556;2023-02-18T19:46:38;9.30;99.90
5419;DHT22;2732;52.092;11.556;2023-02-18T19:51:38;9.30;99.90
5419;DHT22;2732;52.092;11.556;2023-02-18T19:56:39;9.30;99.90
5419;DHT22;2732;52.092;11.556;2023-02-18T20:01:40;9.30;99.90
5419;DHT22;2732;52.092;11.556;2023-02-18T20:06:46;9.30;99.90
5419;DHT22;2732;52.092;11.556;2023-02-18T20:11:47;9.30;99.90
5419;DHT22;2732;52.092;11.556;2023-02-18T20:16:52;9.30;99.90
5419;DHT22;2732;52.092;11.556;2023-02-18T20:21:53;9.30;99.90
5419;DHT22;2732;52.092;11.556;2023-02-18T20:26:56;9.20;99.90
5419;DHT22;2732;52.092;11.556;2023-02-18T20:31:57;9.20;99.90
5419;DHT22;2732;52.092;11.556;2023-02-18T20:36:58;9.20;99.90
5419;DHT22;2732;52.092;11.556;2023-02-18T20:41:58;9.20;99.90
5419;DHT22;2732;52.092;11.556;2023-02-18T20:46:59;9.20;99.90
5419;DHT22;2732;52.092;11.556;2023-02-18T20:52:00;9.20;99.90
5419;DHT22;2732;52.092;11.556;2023-02-18T20:57:01;9.10;99.90
5419;DHT22;2732;52.092;11.556;2023-02-18T21:02:02;9.10;99.90
5419;DHT22;2732;52.092;11.556;2023-02-18T21:07:03;9.10;99.90
5419;DHT22;2732;52.092;11.556;2023-02-18T21:12:04;9.10;99.90
5419;DHT22;2732;52.092;11.556;2023-02-18T21:17:05;9.10;99.90
5419;DHT22;2732;52.092;11.556;2023-02-18T21:22:05;9.00;99.90
5419;DHT22;2732;52.092;11.556;2023-02-18T21:27:06;9.00;99.90
5419;DHT22;2732;52.092;11.556;2023-02-18T21:32:07;8.90;99.90
5419;DHT22;2732;52.092;11.556;2023-02-18T21:37:07;8.90;99.90
5419;DHT22;2732;52.092;11.556;2023-02-18T21:42:08;8.90;99.90
5419;DHT22;2732;52.092;11.556;2023-02-18T21:47:10;8.80;99.90
5419;DHT22;2732;52.092;11.556;2023-02-18T21:52:11;8.80;99.90
5419;DHT22;2732;52.092;11.556;2023-02-18T21:57:16;8.80;99.90
5419;DHT22;2732;52.092;11.556;2023-02-18T22:02:27;8.80;99.90
5419;DHT22;2732;52.092;11.556;2023-02-18T22:07:29;8.80;99.90
5419;DHT22;2732;52.092;11.556;2023-02-18T22:12:29;8.70;99.90
5419;DHT22;2732;52.092;11.556;2023-02-18T22:17:31;8.70;99.90
5419;DHT22;2732;52.092;11.556;2023-02-18T22:22:32;8.60;99.90
5419;DHT22;2732;52.092;11.556;2023-02-18T22:27:33;8.60;99.90
5419;DHT22;2732;52.092;11.556;2023-02-18T22:32:33;8.60;99.90
5419;DHT22;2732;52.092;11.556;2023-02-18T22:37:34;8.60;99.90
5419;DHT22;2732;52.092;11.556;2023-02-18T22:42:35;8.50;99.90
5419;DHT22;2732;52.092;11.556;2023-02-18T22:47:35;8.50;99.90
5419;DHT22;2732;52.092;11.556;2023-02-18T22:52:36;8.50;99.90
5419;DHT22;2732;52.092;11.556;2023-02-18T22:57:36;8.50;99.90
5419;DHT22;2732;52.092;11.556;2023-02-18T23:02:37;8.40;99.90
5419;DHT22;2732;52.092;11.556;2023-02-18T23:07:37;8.40;99.90
5419;DHT22;2732;52.092;11.556;2023-02-18T23:12:38;8.40;99.90
5419;DHT22;2732;52.092;11.556;2023-02-18T23:17:38;8.40;99.90
5419;DHT22;2732;52.092;11.556;2023-02-18T23:22:39;8.40;99.90
5419;DHT22;2732;52.092;11.556;2023-02-18T23:27:41;8.30;99.90
5419;DHT22;2732;52.092;11.556;2023-02-18T23:32:41;8.30;99.90
5419;DHT22;2732;52.092;11.556;2023-02-18T23:37:42;8.30;99.90
5419;DHT22;2732;52.092;11.556;2023-02-18T23:43:01;8.30;99.90
5419;DHT22;2732;52.092;11.556;2023-02-18T23:48:01;8.30;99.90
5419;DHT22;2732;52.092;11.556;2023-02-18T23:53:02;8.30;99.90
5419;DHT22;2732;52.092;11.556;2023-02-18T23:58:03;8.30;99.90
